Nouadhibou, Mauritania
Current Conditions -  °F | °C
As of 6:00 PM on Saturday 20 Dec 2014 (Local Time) from GQPP Reporting Station
Sand / Dust Storm Sand / Dust Storm  
Wind Chill: 70°   Ceiling: Unl
Heat Index: 70°   Visibility: 4mi
Dew Point: 50°   Wind: 13mph
Humidity: 49%   Direction: 320°NW
Pressure: 30.09"   Gusts: NA
Location:  20.96°N, 17.04°W
Report Text: GQPP 201800Z 32011KT 6000 VCBLDU NSC 21/10 Q1019 NOSIG
Loading
Personal Weather Stations






























Interactive Weather Map New forecast layout! Learn more

10-Day Weather Forecast

Advertisements
Track Severe Weather on mobile